ムンバイ の空港の天気 - METARとTAF

チャットラパティー・シヴァージー国際空港 ( VABB / BOM ) - インド ムンバイ
飛行場実況気象(Metar)
観測時間09/28 05:30 IST (09/28 00:00 UTC)
風向・風速静穏 0m/s
視程3500m
天気現象煙霧
全天の4割程度の雲 雲底高度 610m
全天の4割程度の雲 雲底高度 3050m
気温26℃
湿度94%
気圧1008hPa
METARVABB 280000Z 00000KT 3500 HZ SCT020 SCT100 26/25 Q1008 NOSIG
過去の天気等 Google飛行場航空写真 Wunderground天気予報

過去48時間のMETAR

飛行場予報(TAF)
発表時間: 9/28 04:30 IST (9/27 23:00 UTC)
予報対象時間: 28日5時 IST ~ 29日11時 IST
風向・風速東南東 2m/s
視程3000m
天気現象弱い雨 煙霧
全天の4割程度の雲 雲底高度 550m
全天の4割程度の雲 雲底高度 2740m
28日10時 IST ~ 28日12時 IST に徐々に
風向・風速西 5m/s
視程4000m
天気現象弱い霧雨 煙霧
全天の4割程度の雲 雲底高度 550m
全天の4割程度の雲 雲底高度 760m
全天の8割程度の雲 雲底高度 2740m
28日11時 IST ~ 28日17時 IST に一時的に
風向・風速西 5m/s 瞬間風速 10m/s
視程1500m
天気現象弱い雷雨 しゅう雨
全天の4割程度の雲 雲底高度 550m
少しの積乱雲 雲底高度 910m
全天の8割程度の雲 雲底高度 2440m
28日19時 IST ~ 28日21時 IST に徐々に
風向・風速北西 3m/s
視程3000m
天気現象霧雨 煙霧
全天の4割程度の雲 雲底高度 550m
全天の8割程度の雲 雲底高度 2740m
29日1時 IST ~ 29日5時 IST に徐々に
風向・風速東南東 2m/s
視程2500m
天気現象弱い雨 煙霧
TAF VABB 272300Z 2800/2906 11003KT 3000 -RA HZ SCT018 SCT090
BECMG 2805/2807 28010KT 4000 -DZ HZ SCT018 SCT025 BKN090
TEMPO 2806/2812 27010G20KT 1500 -TSRA SHRA SCT018 FEW030CB BKN080
BECMG 2814/2816 31006KT 3000 DZ HZ SCT018 BKN090
BECMG 2820/2824 12004KT 2500 -RA HZ